My Meet Scores
Orli Sweet, Ultimate Gymnastics - MyMeetScores.com
Top100 | Top Teams | Upcoming Meets | Completed Meets | Latest | Add Scores | Help| Support | Bookmark and Share

Orli Sweet, Ultimate Gymnastics
Personal Bests
LevelVault BarsBeamFloorAA
39.1509.150 9.2008.90035.875
48.9758.850 9.3009.42536.125
58.9758.650 9.2009.05035.700
69.1009.125 9.3759.60036.775
Meet Scores
Date Meet Team Session Level Division Vault Bars Beam Floor AA
2021-04-15 Illinois level 6 & Xcel Silver State Champion Ultimate Gymnastics of Gurnee 09 6 Sr C 8.750 16 9.000 14 9.375 8 9.600 3T 36.725 11
2021-02-19 Women's Midwest Open 2021 Ultimate Gymnastics of Gurnee 07B 6 Senior A 8.700 12 9.125 3 8.650 9T 9.475 4T 35.950 5
2021-01-09 2021 Bravo Classic Virtual Meet Ultimate Gymnastics 104 6 Sr 8.800 5 8.350 6 9.050 2 9.500 1 35.700 4
2020-12-04 Wish Classic Ultimate Gymnastics ALL 6 SR 9.100 8T 8.800 6T 9.275 1 9.600 1 36.775 1
2020-02-21 Kinetic Classic Ultimate Gymnastics 01 6 Middle 8.700 40T 8.100 40T 9.250 15T 9.400 7T 35.450 36
2020-02-15 Magical Classic Ultimate Gymnastics A5 6 A5L6G3 7.750 13 7.925 13 9.175 4 9.150 8 34.000 13
2020-02-07 Harley Meet Womens - Midwest Twisters Ultimate Gymnastics of Gurnee O03 6 Sr A 0.000 16 8.200 11 9.075 2 0.000 16 17.275 16
2020-01-10 St Jude Benefit Meet Ultimate Gymnastics 2B 6 Sr A 8.400 19 8.500 12 9.275 3 9.400 4T 35.575 11
2019-12-20 2019 Women's Hawaiian Pineapple Classic Ultimate Gymnastics 3A 6 Age 12 8.825 7 8.100 7 9.150 1 9.250 5 35.325 2
2019-12-06 Ultimate Wish Classic Ultimate Gymnastics 1 6 SR A 9.000 6T 8.600 4T 9.000 8T 9.300 5 35.900 4
2019-11-08 Illinois Judges Cup Ultimate Gymnastics P1 6 All Ages 9.050 10 8.725 17 9.000 20T 9.525 2 36.300 5
2019-03-22 Illinois Gymnastics State Championships Ultimate Gymnastics 3 5 SR A 8.975 23 8.500 22 9.200 11T 9.025 22 35.700 18
2019-02-22 2019 SCEGA California Classic - Women Ultimate Gymnastics 7O 5 Sr A 7.900 10 8.100 9 9.000 3 8.275 9 33.275 8T
2019-02-15 Women's Midwest Open Ultimate Gymnastics 05 5 Senior A 8.300 12 8.650 6 8.950 3 8.525 8 34.425 8
2019-01-25 King Arthur Invitational Ultimate Gymnastics 7 5 SR A 8.275 14 8.425 11 7.925 14 8.050 11T 32.675 14
2019-01-18 2019 Bravo Classic Ultimate Gymnastics 2A 5 Jr 8.075 26 7.350 27 9.000 15T 8.675 25 33.100 26
2019-01-11 St Jude Benefit Meet Ultimate Gymnastics 8A 5 Sr A 8.750 13T 7.300 19 9.050 5T 9.050 9 34.150 14T
2018-03-08 Level 4 & 5 State Buffalo Grove Gymn Center All 4 Jr B 8.675 16 8.850 14 9.150 17T 9.125 11T 35.800 15
2018-02-17 Women's Midwest Open Buffalo Grove Gymn Center 12 4 Sr A 8.975 3 8.750 7 9.200 3 9.075 5 36.000 3
2018-02-08 Hal's Harley-Davidson Invite Womens Buffalo Grove Gymn Center T09 4 10 a 8.600 1 8.800 4 9.300 1 9.425 1 36.125 1
2017-12-14 2017 Women's Hawaiian Pineapple Classic Buffalo Grove Gymn Center 1A 4 Age10 8.500 4T 8.775 4 9.225 2 9.375 1 35.875 1
2017-02-17 Midwest Open Buffalo Grove Gymn Center 1B 4 JR B 8.200 8 8.500 9T 8.975 7 8.150 12 33.825 10
2017-01-27 Circle Of Stars Gymnastics Invitational Buffalo Grove Gymn Center D11 4 Jr A 7.950 15 8.275 10T 8.525 13 8.675 10T 33.425 13
2017-01-20 80s Throwback Classic Buffalo Grove Gymn Center 1 4 Jr B 7.550 16 8.450 11 8.750 5T 8.650 13 33.400 13
2016-12-15 2016 Hawaiian Pineapple Sanction Buffalo Grove Gymn Center 1A 4 Age 9 8.100 16T 8.675 7 8.450 11 8.450 12T 33.675 10
2016-12-02 Ultimate Wish Classic Buffalo Grove Gymn Center 14 4 Child 8.150 10 8.100 9 9.050 9 8.500 9 33.800 7
2016-03-04 2016 Illinois Level 3 State Championships Buffalo Grove Gymn Center 3 Youth-B 9.150 21 9.000 12 9.050 3 8.675 20 35.875 11
2016-02-19 Midwest Open Womens 2016 Buffalo Grove Gymn Center 1A 3 8 8.900 20 9.150 10 9.200 2 8.000 22 35.250 14
2015-12-04 2015 Ultimate Wish Classic Buffalo Grove Gymn Center 10B 3 All 8.375 72 8.525 60 8.575 39 8.900 45 34.375 44
Get your scores on
a t-shirt, pin, or hoodie